Sunset Acres, Arizona
Current Conditions -  °F | °C
As of 5:56 AM on Monday 20 Oct 2014 (Local Time) from KDUG Reporting Station
Clear Clear  
Wind Chill: 44°   Ceiling: Unl
Heat Index: 47°   Visibility: 10mi
Dew Point: 44°   Wind: 6mph
Humidity: 90%   Direction: 360°N
Pressure: 30.03"   Gusts: NA
Location:  31.4799°N, 109.96°W
Report Text: KDUG 201256Z AUTO 36005KT 10SM CLR 08/07 A3003 RMK AO2 SLP131 T00830067
Loading
Personal Weather Stations






























Interactive Weather Map
Tropical Storm Tracking
New forecast layout! Learn more

10-Day Weather Forecast

Advertisements
Track Severe Weather on mobile